Luskville, Canada
Current Conditions -  °F | °C
As of 8:12 AM on Sunday 21 Dec 2014 (Local Time) from CYND Reporting Station
Haze Haze  
Wind Chill: 14°   Ceiling: 600
Heat Index: 14°   Visibility: 1.5mi
Dew Point: 12°   Wind: 3mph
Humidity: 93%   Direction: 80°E
Pressure: 30.38"   Gusts: NA
Location:  45.52°N, 76°W
Report Text: CYND 211312Z 08003KT 1 1/2SM BR OVC006 M10/M11 A3038 RMK SF8 SLP292
Loading
Personal Weather Stations






























Interactive Weather Map New forecast layout! Learn more

10-Day Weather Forecast

Advertisements
Track Severe Weather on mobile